Darlington, South Carolina
Current Conditions -  °F | °C
As of 4:35 PM on Saturday 22 Nov 2014 (Local Time) from KUDG Reporting Station
Clear Clear  
Wind Chill: 59°   Ceiling: Unl
Heat Index: 59°   Visibility: 10mi
Dew Point: 27°   Wind: 3mph
Humidity: 29%   Direction: 80°E
Pressure: 30.39"   Gusts: NA
Location:  34.3°N, 79.87°W
Report Text: KUDG 222135Z AUTO 08003KT 10SM CLR 15/M03 A3039 RMK AO1
Loading
Personal Weather Stations






























Interactive Weather Map New forecast layout! Learn more

10-Day Weather Forecast

Advertisements
Track Severe Weather on mobile